GLO1836 SBBR-SBGL
Flight info
| Callsign | GLO1836 |
|---|---|
| Flight time | N/A |
| Altitude | 37000 |
| Route | GEPMO UZ24 MAVGU |
| Aircraft | B738/M-SDFGIKLORWXY/LB1 |
Departure
| Time | 2026-04-29 18:37 |
|---|---|
| Airport | Presidente Juscelino Kubitschek International Airport (SBBR) |
Arrival
| Time | N/A |
|---|---|
| Airport | Rio Galeão – Tom Jobim International Airport (SBGL) |
| Time | Latitude | Longitude | Altitude | Speed | Heading |
|---|---|---|---|---|---|
| 2026-04-29 18:16 | -15.86707 | -47.91844 | 3471 ft | 0 kts | 176° |
| 2026-04-29 18:24 | -15.86686 | -47.91845 | 3469 ft | 4 kts | 176° |
| 2026-04-29 18:24 | -15.86659 | -47.91847 | 3470 ft | 4 kts | 171° |
| 2026-04-29 18:24 | -15.86635 | -47.91855 | 3469 ft | 4 kts | 142° |
| 2026-04-29 18:24 | -15.86619 | -47.91872 | 3468 ft | 4 kts | 110° |
| 2026-04-29 18:25 | -15.86617 | -47.91898 | 3470 ft | 4 kts | 85° |
| 2026-04-29 18:25 | -15.86618 | -47.91909 | 3470 ft | 1 kts | 86° |
| 2026-04-29 18:26 | -15.86617 | -47.91907 | 3470 ft | 1 kts | 86° |
| 2026-04-29 18:27 | -15.86616 | -47.91889 | 3469 ft | 4 kts | 86° |
| 2026-04-29 18:27 | -15.86614 | -47.91847 | 3470 ft | 7 kts | 86° |
| 2026-04-29 18:27 | -15.86611 | -47.91786 | 3470 ft | 10 kts | 87° |
| 2026-04-29 18:27 | -15.86635 | -47.91721 | 3469 ft | 11 kts | 152° |
| 2026-04-29 18:28 | -15.86708 | -47.91710 | 3471 ft | 11 kts | 176° |
| 2026-04-29 18:28 | -15.86792 | -47.91705 | 3471 ft | 13 kts | 176° |
| 2026-04-29 18:28 | -15.86886 | -47.91698 | 3471 ft | 14 kts | 175° |
| 2026-04-29 18:28 | -15.86990 | -47.91691 | 3470 ft | 16 kts | 176° |
| 2026-04-29 18:29 | -15.87104 | -47.91683 | 3470 ft | 17 kts | 176° |
| 2026-04-29 18:29 | -15.87185 | -47.91677 | 3470 ft | 18 kts | 176° |
| 2026-04-29 18:29 | -15.87362 | -47.91665 | 3470 ft | 20 kts | 176° |
| 2026-04-29 18:29 | -15.87499 | -47.91656 | 3468 ft | 19 kts | 176° |
| 2026-04-29 18:30 | -15.87631 | -47.91648 | 3463 ft | 19 kts | 176° |
| 2026-04-29 18:30 | -15.87736 | -47.91689 | 3462 ft | 18 kts | 258° |
| 2026-04-29 18:30 | -15.87745 | -47.91816 | 3464 ft | 17 kts | 266° |
| 2026-04-29 18:30 | -15.87753 | -47.91939 | 3467 ft | 17 kts | 265° |
| 2026-04-29 18:31 | -15.87761 | -47.92058 | 3469 ft | 16 kts | 266° |
| 2026-04-29 18:31 | -15.87768 | -47.92172 | 3471 ft | 16 kts | 266° |
| 2026-04-29 18:31 | -15.87776 | -47.92282 | 3470 ft | 15 kts | 265° |
| 2026-04-29 18:31 | -15.87785 | -47.92387 | 3474 ft | 14 kts | 265° |
| 2026-04-29 18:32 | -15.87791 | -47.92489 | 3475 ft | 14 kts | 270° |
| 2026-04-29 18:32 | -15.87801 | -47.92692 | 3475 ft | 13 kts | 266° |
| 2026-04-29 18:32 | -15.87808 | -47.92790 | 3479 ft | 14 kts | 266° |
| 2026-04-29 18:33 | -15.87814 | -47.92897 | 3480 ft | 16 kts | 266° |
| 2026-04-29 18:33 | -15.87822 | -47.93018 | 3481 ft | 18 kts | 266° |
| 2026-04-29 18:33 | -15.87830 | -47.93144 | 3485 ft | 17 kts | 266° |
| 2026-04-29 18:33 | -15.87838 | -47.93266 | 3496 ft | 17 kts | 266° |
| 2026-04-29 18:34 | -15.87845 | -47.93382 | 3500 ft | 16 kts | 266° |
| 2026-04-29 18:34 | -15.87850 | -47.93459 | 3504 ft | 16 kts | 266° |
| 2026-04-29 18:34 | -15.87860 | -47.93615 | 3501 ft | 16 kts | 266° |
| 2026-04-29 18:34 | -15.87868 | -47.93730 | 3506 ft | 16 kts | 265° |
| 2026-04-29 18:35 | -15.87875 | -47.93841 | 3514 ft | 15 kts | 266° |
| 2026-04-29 18:35 | -15.87885 | -47.93958 | 3508 ft | 17 kts | 255° |
| 2026-04-29 18:35 | -15.87978 | -47.93995 | 3514 ft | 13 kts | 174° |
| 2026-04-29 18:35 | -15.88055 | -47.93955 | 3510 ft | 13 kts | 118° |
| 2026-04-29 18:36 | -15.88062 | -47.93906 | 3510 ft | 1 kts | 86° |
| 2026-04-29 18:36 | -15.88059 | -47.93863 | 3509 ft | 25 kts | 86° |
| 2026-04-29 18:36 | -15.88030 | -47.93417 | 3496 ft | 97 kts | 86° |
| 2026-04-29 18:36 | -15.87969 | -47.92496 | 3479 ft | 155 kts | 85° |
| 2026-04-29 18:37 | -15.87891 | -47.91223 | 3700 ft | 188 kts | 89° |
| 2026-04-29 18:37 | -15.87883 | -47.89914 | 4824 ft | 176 kts | 104° |
| 2026-04-29 18:37 | -15.88601 | -47.88907 | 5610 ft | 185 kts | 148° |
| 2026-04-29 18:37 | -15.89882 | -47.88479 | 6123 ft | 206 kts | 167° |
| 2026-04-29 18:38 | -15.91371 | -47.88250 | 6492 ft | 226 kts | 167° |
| 2026-04-29 18:38 | -15.93017 | -47.87931 | 6755 ft | 251 kts | 166° |
| 2026-04-29 18:38 | -15.94811 | -47.87528 | 7150 ft | 272 kts | 165° |
| 2026-04-29 18:38 | -15.96687 | -47.87078 | 7837 ft | 281 kts | 165° |
| 2026-04-29 18:39 | -15.98572 | -47.86607 | 8814 ft | 277 kts | 166° |
| 2026-04-29 18:39 | -16.00469 | -47.86120 | 9631 ft | 283 kts | 166° |
| 2026-04-29 18:39 | -16.02394 | -47.85620 | 10373 ft | 288 kts | 166° |
| 2026-04-29 18:39 | -16.04408 | -47.85093 | 10655 ft | 311 kts | 166° |
| 2026-04-29 18:40 | -16.06569 | -47.84451 | 10865 ft | 333 kts | 157° |
| 2026-04-29 18:40 | -16.08499 | -47.83149 | 11350 ft | 343 kts | 140° |
| 2026-04-29 18:40 | -16.10347 | -47.81489 | 11961 ft | 349 kts | 138° |
| 2026-04-29 18:40 | -16.12174 | -47.79796 | 12611 ft | 354 kts | 137° |
| 2026-04-29 18:41 | -16.17792 | -47.74573 | 14373 ft | 370 kts | 137° |
| 2026-04-29 18:41 | -16.19726 | -47.72790 | 15014 ft | 373 kts | 137° |
| 2026-04-29 18:42 | -16.21684 | -47.70991 | 15569 ft | 377 kts | 137° |
| 2026-04-29 18:42 | -16.23662 | -47.69179 | 16133 ft | 381 kts | 137° |
| 2026-04-29 18:42 | -16.25661 | -47.67347 | 16712 ft | 384 kts | 137° |
| 2026-04-29 18:42 | -16.27680 | -47.65499 | 17262 ft | 388 kts | 137° |
| 2026-04-29 18:43 | -16.29717 | -47.63633 | 17808 ft | 391 kts | 137° |
| 2026-04-29 18:43 | -16.31769 | -47.61753 | 18320 ft | 396 kts | 137° |
| 2026-04-29 18:43 | -16.33846 | -47.59849 | 18779 ft | 399 kts | 137° |
| 2026-04-29 18:43 | -16.35939 | -47.57931 | 19244 ft | 402 kts | 137° |
| 2026-04-29 18:44 | -16.38022 | -47.56022 | 19709 ft | 405 kts | 137° |
| 2026-04-29 18:44 | -16.40118 | -47.54099 | 20165 ft | 408 kts | 137° |
| 2026-04-29 18:44 | -16.42260 | -47.52134 | 20628 ft | 411 kts | 137° |
| 2026-04-29 18:44 | -16.44417 | -47.50155 | 21096 ft | 414 kts | 137° |
| 2026-04-29 18:45 | -16.46590 | -47.48160 | 21550 ft | 417 kts | 137° |
| 2026-04-29 18:45 | -16.48776 | -47.46152 | 22002 ft | 421 kts | 137° |
| 2026-04-29 18:45 | -16.50982 | -47.44126 | 22447 ft | 424 kts | 137° |
| 2026-04-29 18:45 | -16.53200 | -47.42088 | 22887 ft | 427 kts | 137° |
| 2026-04-29 18:46 | -16.55434 | -47.40035 | 23314 ft | 430 kts | 137° |
| 2026-04-29 18:46 | -16.57685 | -47.37965 | 23716 ft | 433 kts | 137° |
| 2026-04-29 18:46 | -16.59950 | -47.35882 | 24095 ft | 435 kts | 137° |
| 2026-04-29 18:46 | -16.62218 | -47.33796 | 24490 ft | 436 kts | 137° |
| 2026-04-29 18:47 | -16.64500 | -47.31695 | 24869 ft | 438 kts | 137° |
| 2026-04-29 18:47 | -16.66787 | -47.29590 | 25243 ft | 440 kts | 137° |
| 2026-04-29 18:47 | -16.69090 | -47.27469 | 25607 ft | 442 kts | 137° |
| 2026-04-29 18:47 | -16.71403 | -47.25338 | 25980 ft | 444 kts | 137° |
| 2026-04-29 18:48 | -16.73718 | -47.23203 | 26360 ft | 446 kts | 137° |
| 2026-04-29 18:48 | -16.76050 | -47.21054 | 26704 ft | 448 kts | 137° |
| 2026-04-29 18:48 | -16.78394 | -47.18892 | 27018 ft | 450 kts | 137° |
| 2026-04-29 18:48 | -16.80717 | -47.16747 | 27359 ft | 452 kts | 137° |
| 2026-04-29 18:49 | -16.83083 | -47.14565 | 27686 ft | 454 kts | 137° |
| 2026-04-29 18:49 | -16.85463 | -47.12365 | 28010 ft | 457 kts | 137° |
| 2026-04-29 18:49 | -16.87823 | -47.10129 | 28325 ft | 459 kts | 136° |
| 2026-04-29 18:49 | -16.90164 | -47.07863 | 28625 ft | 461 kts | 136° |
| 2026-04-29 18:50 | -16.92517 | -47.05569 | 28931 ft | 463 kts | 136° |
| 2026-04-29 18:50 | -16.94880 | -47.03266 | 29233 ft | 465 kts | 136° |
| 2026-04-29 18:50 | -16.97256 | -47.00955 | 29521 ft | 467 kts | 136° |
| 2026-04-29 18:50 | -16.99639 | -46.98642 | 29823 ft | 469 kts | 136° |
| 2026-04-29 18:51 | -17.02035 | -46.96321 | 30084 ft | 471 kts | 137° |
| 2026-04-29 18:51 | -17.04447 | -46.93984 | 30312 ft | 473 kts | 137° |
| 2026-04-29 18:51 | -17.06870 | -46.91636 | 30538 ft | 475 kts | 137° |
| 2026-04-29 18:51 | -17.09295 | -46.89285 | 30769 ft | 477 kts | 137° |
| 2026-04-29 18:52 | -17.11698 | -46.86954 | 31046 ft | 477 kts | 137° |
| 2026-04-29 18:52 | -17.14130 | -46.84595 | 31383 ft | 476 kts | 137° |
| 2026-04-29 18:52 | -17.16586 | -46.82287 | 31776 ft | 473 kts | 141° |
| 2026-04-29 18:52 | -17.19271 | -46.80326 | 32123 ft | 471 kts | 150° |
| 2026-04-29 18:53 | -17.22090 | -46.78590 | 32485 ft | 469 kts | 151° |
| 2026-04-29 18:53 | -17.23968 | -46.77466 | 32704 ft | 469 kts | 151° |
| 2026-04-29 18:53 | -17.26805 | -46.75781 | 33040 ft | 468 kts | 152° |
| 2026-04-29 18:53 | -17.29628 | -46.74098 | 33371 ft | 467 kts | 151° |
| 2026-04-29 18:54 | -17.32446 | -46.72403 | 33728 ft | 466 kts | 151° |
| 2026-04-29 18:54 | -17.35249 | -46.70700 | 34061 ft | 465 kts | 151° |
| 2026-04-29 18:54 | -17.38042 | -46.68994 | 34346 ft | 464 kts | 151° |
| 2026-04-29 18:54 | -17.40824 | -46.67289 | 34612 ft | 464 kts | 151° |
| 2026-04-29 18:55 | -17.43613 | -46.65575 | 34901 ft | 463 kts | 151° |
| 2026-04-29 18:55 | -17.46384 | -46.63872 | 35175 ft | 462 kts | 151° |
| 2026-04-29 18:55 | -17.49158 | -46.62166 | 35427 ft | 462 kts | 151° |
| 2026-04-29 18:55 | -17.51930 | -46.60462 | 35684 ft | 461 kts | 151° |
| 2026-04-29 18:56 | -17.54692 | -46.58763 | 35946 ft | 461 kts | 151° |
| 2026-04-29 18:56 | -17.57457 | -46.57062 | 36200 ft | 460 kts | 151° |
| 2026-04-29 18:56 | -17.60220 | -46.55363 | 36441 ft | 460 kts | 151° |
| 2026-04-29 18:56 | -17.62943 | -46.53687 | 36681 ft | 459 kts | 151° |
| 2026-04-29 18:57 | -17.65699 | -46.51990 | 36936 ft | 459 kts | 151° |
| 2026-04-29 18:57 | -17.68458 | -46.50292 | 36940 ft | 463 kts | 151° |
| 2026-04-29 18:57 | -17.74015 | -46.46868 | 36949 ft | 463 kts | 151° |
| 2026-04-29 18:58 | -17.79532 | -46.43464 | 36957 ft | 457 kts | 152° |
| 2026-04-29 18:58 | -17.85003 | -46.40088 | 36968 ft | 455 kts | 152° |
| 2026-04-29 18:59 | -17.90461 | -46.36718 | 36969 ft | 454 kts | 152° |
| 2026-04-29 18:59 | -17.95906 | -46.33353 | 36970 ft | 454 kts | 152° |
| 2026-04-29 19:00 | -18.01351 | -46.29986 | 36979 ft | 454 kts | 152° |
| 2026-04-29 19:00 | -18.06778 | -46.26627 | 36980 ft | 456 kts | 152° |
| 2026-04-29 19:01 | -18.12243 | -46.23242 | 36982 ft | 457 kts | 152° |
| 2026-04-29 19:01 | -18.17738 | -46.19835 | 36987 ft | 459 kts | 152° |
| 2026-04-29 19:02 | -18.23246 | -46.16419 | 36987 ft | 460 kts | 152° |
| 2026-04-29 19:02 | -18.28770 | -46.12988 | 36991 ft | 462 kts | 152° |
| 2026-04-29 19:03 | -18.34306 | -46.09544 | 36998 ft | 463 kts | 152° |
| 2026-04-29 19:03 | -18.39861 | -46.06086 | 36999 ft | 464 kts | 152° |
| 2026-04-29 19:04 | -18.45417 | -46.02625 | 36988 ft | 464 kts | 152° |
| 2026-04-29 19:04 | -18.50934 | -45.99184 | 36995 ft | 464 kts | 152° |
| 2026-04-29 19:05 | -18.56484 | -45.95722 | 36991 ft | 463 kts | 152° |
| 2026-04-29 19:05 | -18.62023 | -45.92263 | 36994 ft | 462 kts | 152° |
| 2026-04-29 19:06 | -18.67560 | -45.88803 | 36996 ft | 462 kts | 152° |
| 2026-04-29 19:07 | -18.75848 | -45.83618 | 37000 ft | 460 kts | 152° |
| 2026-04-29 19:07 | -18.81359 | -45.80167 | 36992 ft | 460 kts | 152° |
| 2026-04-29 19:08 | -18.86880 | -45.76751 | 36998 ft | 460 kts | 153° |
| 2026-04-29 19:08 | -18.92393 | -45.73413 | 36993 ft | 460 kts | 153° |
| 2026-04-29 19:09 | -18.97982 | -45.70025 | 36992 ft | 460 kts | 153° |
| 2026-04-29 19:09 | -19.03500 | -45.66666 | 36998 ft | 460 kts | 153° |
| 2026-04-29 19:10 | -19.09045 | -45.63283 | 37004 ft | 460 kts | 153° |
| 2026-04-29 19:10 | -19.14593 | -45.59896 | 36989 ft | 461 kts | 153° |
| 2026-04-29 19:11 | -19.20163 | -45.56494 | 36991 ft | 462 kts | 153° |
| 2026-04-29 19:11 | -19.25734 | -45.53087 | 36988 ft | 463 kts | 153° |
| 2026-04-29 19:12 | -19.31313 | -45.49673 | 36989 ft | 464 kts | 153° |
| 2026-04-29 19:12 | -19.36902 | -45.46245 | 36986 ft | 464 kts | 153° |
| 2026-04-29 19:13 | -19.42492 | -45.42800 | 36988 ft | 465 kts | 153° |
| 2026-04-29 19:13 | -19.48041 | -45.39375 | 36986 ft | 465 kts | 153° |
| 2026-04-29 19:14 | -19.53630 | -45.35926 | 36987 ft | 465 kts | 153° |
| 2026-04-29 19:14 | -19.59226 | -45.32469 | 36990 ft | 465 kts | 153° |
| 2026-04-29 19:15 | -19.64813 | -45.29016 | 36988 ft | 465 kts | 153° |
| 2026-04-29 19:15 | -19.70396 | -45.25561 | 36988 ft | 464 kts | 153° |
| 2026-04-29 19:16 | -19.75981 | -45.22103 | 36993 ft | 464 kts | 153° |
| 2026-04-29 19:16 | -19.81557 | -45.18647 | 36991 ft | 464 kts | 153° |
| 2026-04-29 19:17 | -19.87141 | -45.15188 | 36996 ft | 464 kts | 153° |
| 2026-04-29 19:17 | -19.92688 | -45.11785 | 36999 ft | 464 kts | 153° |
| 2026-04-29 19:18 | -19.98278 | -45.08363 | 37006 ft | 464 kts | 153° |
| 2026-04-29 19:18 | -20.03875 | -45.04929 | 37006 ft | 464 kts | 153° |
| 2026-04-29 19:19 | -20.09464 | -45.01493 | 37007 ft | 464 kts | 153° |
| 2026-04-29 19:19 | -20.15061 | -44.98049 | 37009 ft | 464 kts | 153° |
| 2026-04-29 19:20 | -20.20625 | -44.94622 | 37010 ft | 465 kts | 153° |
| 2026-04-29 19:20 | -20.26227 | -44.91170 | 37009 ft | 465 kts | 153° |
| 2026-04-29 19:21 | -20.31843 | -44.87706 | 37007 ft | 466 kts | 153° |
| 2026-04-29 19:21 | -20.37459 | -44.84237 | 37005 ft | 467 kts | 153° |
| 2026-04-29 19:22 | -20.43080 | -44.80764 | 37014 ft | 467 kts | 153° |
| 2026-04-29 19:22 | -20.48715 | -44.77279 | 37018 ft | 468 kts | 153° |
| 2026-04-29 19:23 | -20.54266 | -44.73705 | 37018 ft | 469 kts | 152° |
| 2026-04-29 19:23 | -20.59818 | -44.70017 | 37005 ft | 470 kts | 152° |
| 2026-04-29 19:24 | -20.65371 | -44.66344 | 37007 ft | 469 kts | 152° |
| 2026-04-29 19:24 | -20.70962 | -44.62663 | 36506 ft | 475 kts | 152° |
| 2026-04-29 19:24 | -20.73759 | -44.60820 | 36161 ft | 469 kts | 152° |
| 2026-04-29 19:25 | -20.76529 | -44.58994 | 35741 ft | 466 kts | 152° |
| 2026-04-29 19:25 | -20.79280 | -44.57180 | 35326 ft | 463 kts | 152° |
| 2026-04-29 19:25 | -20.82025 | -44.55405 | 34927 ft | 459 kts | 153° |
| 2026-04-29 19:25 | -20.84732 | -44.53697 | 34526 ft | 456 kts | 153° |
| 2026-04-29 19:26 | -20.87465 | -44.51986 | 34110 ft | 454 kts | 153° |
| 2026-04-29 19:26 | -20.90183 | -44.50281 | 33653 ft | 451 kts | 153° |
| 2026-04-29 19:26 | -20.92883 | -44.48579 | 33228 ft | 448 kts | 153° |
| 2026-04-29 19:26 | -20.95556 | -44.46887 | 32815 ft | 445 kts | 152° |
| 2026-04-29 19:27 | -20.98216 | -44.45202 | 32416 ft | 442 kts | 153° |
| 2026-04-29 19:27 | -21.00863 | -44.43538 | 32040 ft | 439 kts | 153° |
| 2026-04-29 19:27 | -21.03497 | -44.41893 | 31654 ft | 437 kts | 153° |
| 2026-04-29 19:27 | -21.06109 | -44.40260 | 31275 ft | 434 kts | 153° |
| 2026-04-29 19:28 | -21.08713 | -44.38628 | 30895 ft | 432 kts | 152° |
| 2026-04-29 19:28 | -21.11292 | -44.36996 | 30524 ft | 430 kts | 152° |
| 2026-04-29 19:28 | -21.13858 | -44.35363 | 30115 ft | 429 kts | 152° |
| 2026-04-29 19:28 | -21.16423 | -44.33730 | 29699 ft | 427 kts | 152° |
| 2026-04-29 19:29 | -21.18971 | -44.32108 | 29274 ft | 424 kts | 152° |
| 2026-04-29 19:29 | -21.21497 | -44.30502 | 28869 ft | 421 kts | 152° |
| 2026-04-29 19:29 | -21.23976 | -44.28925 | 28475 ft | 419 kts | 152° |
| 2026-04-29 19:29 | -21.26470 | -44.27325 | 28093 ft | 416 kts | 152° |
| 2026-04-29 19:30 | -21.28940 | -44.25730 | 27709 ft | 413 kts | 151° |
| 2026-04-29 19:30 | -21.31390 | -44.24143 | 27327 ft | 411 kts | 151° |
| 2026-04-29 19:30 | -21.33832 | -44.22563 | 26948 ft | 408 kts | 151° |
| 2026-04-29 19:30 | -21.36254 | -44.20995 | 26578 ft | 406 kts | 151° |
| 2026-04-29 19:31 | -21.38670 | -44.19432 | 26213 ft | 404 kts | 151° |
| 2026-04-29 19:31 | -21.41074 | -44.17877 | 25845 ft | 402 kts | 151° |
| 2026-04-29 19:31 | -21.43463 | -44.16332 | 25482 ft | 401 kts | 151° |
| 2026-04-29 19:31 | -21.45842 | -44.14792 | 25114 ft | 399 kts | 151° |
| 2026-04-29 19:32 | -21.48221 | -44.13253 | 24734 ft | 398 kts | 151° |
| 2026-04-29 19:32 | -21.50589 | -44.11722 | 24359 ft | 397 kts | 151° |
| 2026-04-29 19:32 | -21.52958 | -44.10190 | 23993 ft | 397 kts | 151° |
| 2026-04-29 19:32 | -21.55319 | -44.08662 | 23617 ft | 396 kts | 151° |
| 2026-04-29 19:33 | -21.57686 | -44.07145 | 23198 ft | 395 kts | 153° |
| 2026-04-29 19:33 | -21.60115 | -44.05789 | 22840 ft | 391 kts | 156° |
| 2026-04-29 19:33 | -21.62562 | -44.04549 | 22464 ft | 388 kts | 158° |
| 2026-04-29 19:33 | -21.65010 | -44.03339 | 22096 ft | 386 kts | 158° |
| 2026-04-29 19:34 | -21.67436 | -44.02132 | 21738 ft | 384 kts | 157° |
| 2026-04-29 19:34 | -21.69849 | -44.00917 | 21370 ft | 382 kts | 156° |
| 2026-04-29 19:34 | -21.72240 | -43.99698 | 21010 ft | 380 kts | 156° |
| 2026-04-29 19:34 | -21.74593 | -43.98491 | 20651 ft | 379 kts | 156° |
| 2026-04-29 19:35 | -21.76967 | -43.97269 | 20296 ft | 378 kts | 156° |
| 2026-04-29 19:35 | -21.79334 | -43.96050 | 19903 ft | 378 kts | 156° |
| 2026-04-29 19:35 | -21.81710 | -43.94826 | 19548 ft | 376 kts | 156° |
| 2026-04-29 19:35 | -21.84071 | -43.93610 | 19185 ft | 375 kts | 156° |
| 2026-04-29 19:36 | -21.86430 | -43.92394 | 18803 ft | 375 kts | 156° |
| 2026-04-29 19:36 | -21.88777 | -43.91184 | 18431 ft | 374 kts | 156° |
| 2026-04-29 19:36 | -21.91125 | -43.89974 | 18024 ft | 374 kts | 155° |
| 2026-04-29 19:36 | -21.93465 | -43.88767 | 17629 ft | 371 kts | 155° |
| 2026-04-29 19:37 | -21.95785 | -43.87569 | 17280 ft | 369 kts | 155° |
| 2026-04-29 19:37 | -21.96540 | -43.87180 | 17158 ft | 368 kts | 155° |
| 2026-04-29 19:37 | -22.00391 | -43.85190 | 16551 ft | 364 kts | 155° |
| 2026-04-29 19:37 | -22.02669 | -43.84014 | 16190 ft | 362 kts | 155° |
| 2026-04-29 19:38 | -22.04939 | -43.82840 | 15822 ft | 360 kts | 155° |
| 2026-04-29 19:38 | -22.07189 | -43.81677 | 15473 ft | 358 kts | 155° |
| 2026-04-29 19:38 | -22.09429 | -43.80518 | 15132 ft | 355 kts | 154° |
| 2026-04-29 19:38 | -22.11654 | -43.79367 | 14780 ft | 354 kts | 154° |
| 2026-04-29 19:39 | -22.13866 | -43.78222 | 14426 ft | 352 kts | 154° |
| 2026-04-29 19:39 | -22.16049 | -43.77091 | 14066 ft | 352 kts | 154° |
| 2026-04-29 19:39 | -22.18262 | -43.75945 | 13672 ft | 352 kts | 154° |
| 2026-04-29 19:39 | -22.20463 | -43.74804 | 13295 ft | 350 kts | 154° |
| 2026-04-29 19:40 | -22.22653 | -43.73668 | 12935 ft | 347 kts | 154° |
| 2026-04-29 19:40 | -22.24819 | -43.72544 | 12583 ft | 344 kts | 154° |
| 2026-04-29 19:40 | -22.26973 | -43.71427 | 12238 ft | 342 kts | 154° |
| 2026-04-29 19:40 | -22.29086 | -43.70331 | 11874 ft | 331 kts | 154° |
| 2026-04-29 19:41 | -22.31131 | -43.69269 | 11542 ft | 321 kts | 154° |
| 2026-04-29 19:41 | -22.33104 | -43.68245 | 11315 ft | 311 kts | 154° |
| 2026-04-29 19:41 | -22.34424 | -43.67560 | 11102 ft | 310 kts | 154° |
| 2026-04-29 19:41 | -22.36363 | -43.66553 | 10803 ft | 309 kts | 154° |
| 2026-04-29 19:42 | -22.38273 | -43.65560 | 10495 ft | 308 kts | 154° |
| 2026-04-29 19:42 | -22.39575 | -43.64882 | 10285 ft | 307 kts | 154° |
| 2026-04-29 19:42 | -22.42087 | -43.63576 | 10092 ft | 297 kts | 154° |
| 2026-04-29 19:42 | -22.43931 | -43.62617 | 9829 ft | 294 kts | 154° |
| 2026-04-29 19:43 | -22.45770 | -43.61660 | 9518 ft | 292 kts | 154° |
| 2026-04-29 19:43 | -22.47600 | -43.60707 | 9210 ft | 291 kts | 154° |
| 2026-04-29 19:43 | -22.49425 | -43.59757 | 8878 ft | 290 kts | 154° |
| 2026-04-29 19:43 | -22.51239 | -43.58813 | 8567 ft | 289 kts | 154° |
| 2026-04-29 19:44 | -22.53048 | -43.57871 | 8259 ft | 288 kts | 154° |
| 2026-04-29 19:44 | -22.54847 | -43.56933 | 7963 ft | 286 kts | 154° |
| 2026-04-29 19:44 | -22.56637 | -43.55999 | 7688 ft | 285 kts | 154° |
| 2026-04-29 19:44 | -22.58417 | -43.55069 | 7415 ft | 283 kts | 154° |
| 2026-04-29 19:45 | -22.60183 | -43.54146 | 7128 ft | 282 kts | 154° |
| 2026-04-29 19:45 | -22.61951 | -43.53220 | 6857 ft | 281 kts | 154° |
| 2026-04-29 19:45 | -22.63702 | -43.52269 | 6548 ft | 281 kts | 147° |
| 2026-04-29 19:45 | -22.65105 | -43.50799 | 6104 ft | 285 kts | 125° |
| 2026-04-29 19:46 | -22.66270 | -43.49087 | 5727 ft | 280 kts | 125° |
| 2026-04-29 19:46 | -22.67414 | -43.47405 | 5316 ft | 276 kts | 124° |
| 2026-04-29 19:46 | -22.68535 | -43.45712 | 4796 ft | 277 kts | 124° |
| 2026-04-29 19:46 | -22.69638 | -43.44029 | 4268 ft | 277 kts | 124° |
| 2026-04-29 19:47 | -22.70752 | -43.42330 | 3728 ft | 277 kts | 124° |
| 2026-04-29 19:47 | -22.71864 | -43.40635 | 3267 ft | 274 kts | 125° |
| 2026-04-29 19:47 | -22.72960 | -43.38968 | 2871 ft | 269 kts | 125° |
| 2026-04-29 19:47 | -22.74040 | -43.37326 | 2385 ft | 268 kts | 125° |
| 2026-04-29 19:48 | -22.75100 | -43.35712 | 2013 ft | 254 kts | 125° |
| 2026-04-29 19:48 | -22.75763 | -43.34704 | 1799 ft | 242 kts | 125° |
| 2026-04-29 19:48 | -22.77015 | -43.32799 | 1389 ft | 222 kts | 125° |
| 2026-04-29 19:48 | -22.77883 | -43.31482 | 1141 ft | 208 kts | 125° |
| 2026-04-29 19:49 | -22.78698 | -43.30239 | 886 ft | 194 kts | 126° |
| 2026-04-29 19:49 | -22.79448 | -43.29099 | 652 ft | 181 kts | 125° |
| 2026-04-29 19:49 | -22.80155 | -43.28040 | 450 ft | 167 kts | 127° |